TAM3566 SBGR-SBNF
Flight info
| Callsign | TAM3566 |
|---|---|
| Flight time | 0h 53m |
| Altitude | 32000 |
| Route | MADNI UZ92 PUBIS |
| Aircraft | A20N/M-SDE2E3FGHIRWXY/LB1 |
Departure
| Time | 2026-04-25 19:05 |
|---|---|
| Airport | São Paulo/Guarulhos–Governor André Franco Montoro International Airport (SBGR) |
Arrival
| Time | 2026-04-25 19:59 |
|---|---|
| Airport | Ministro Victor Konder International Airport (SBNF) |
| Time | Latitude | Longitude | Altitude | Speed | Heading |
|---|---|---|---|---|---|
| 2026-04-25 18:03 | -23.42819 | -46.48347 | 2455 ft | 0 kts | 84° |
| 2026-04-25 18:08 | -23.42870 | -46.48346 | 2455 ft | 0 kts | 88° |
| 2026-04-25 18:43 | -23.42870 | -46.48356 | 2462 ft | 1 kts | 88° |
| 2026-04-25 18:43 | -23.42871 | -46.48367 | 2458 ft | 1 kts | 88° |
| 2026-04-25 18:43 | -23.42871 | -46.48382 | 2455 ft | 2 kts | 88° |
| 2026-04-25 18:44 | -23.42870 | -46.48399 | 2455 ft | 2 kts | 108° |
| 2026-04-25 18:44 | -23.42864 | -46.48413 | 2463 ft | 2 kts | 128° |
| 2026-04-25 18:44 | -23.42854 | -46.48424 | 2458 ft | 2 kts | 151° |
| 2026-04-25 18:44 | -23.42840 | -46.48430 | 2457 ft | 2 kts | 178° |
| 2026-04-25 18:45 | -23.42826 | -46.48430 | 2457 ft | 1 kts | 179° |
| 2026-04-25 18:51 | -23.42846 | -46.48429 | 2457 ft | 8 kts | 179° |
| 2026-04-25 18:52 | -23.42915 | -46.48440 | 2457 ft | 12 kts | 197° |
| 2026-04-25 18:52 | -23.43004 | -46.48449 | 2455 ft | 14 kts | 176° |
| 2026-04-25 18:52 | -23.43109 | -46.48421 | 2459 ft | 17 kts | 167° |
| 2026-04-25 18:52 | -23.43178 | -46.48365 | 2463 ft | 12 kts | 98° |
| 2026-04-25 18:53 | -23.43156 | -46.48283 | 2456 ft | 11 kts | 72° |
| 2026-04-25 18:53 | -23.43136 | -46.48204 | 2462 ft | 11 kts | 75° |
| 2026-04-25 18:53 | -23.43109 | -46.48108 | 2461 ft | 15 kts | 73° |
| 2026-04-25 18:53 | -23.43074 | -46.47977 | 2461 ft | 21 kts | 74° |
| 2026-04-25 18:54 | -23.42973 | -46.47605 | 2453 ft | 28 kts | 74° |
| 2026-04-25 18:54 | -23.42943 | -46.47490 | 2455 ft | 13 kts | 74° |
| 2026-04-25 18:54 | -23.42914 | -46.47378 | 2468 ft | 18 kts | 73° |
| 2026-04-25 18:55 | -23.42880 | -46.47256 | 2471 ft | 11 kts | 73° |
| 2026-04-25 18:55 | -23.42862 | -46.47191 | 2471 ft | 8 kts | 73° |
| 2026-04-25 18:55 | -23.42845 | -46.47127 | 2471 ft | 10 kts | 73° |
| 2026-04-25 18:55 | -23.42825 | -46.47053 | 2466 ft | 12 kts | 73° |
| 2026-04-25 18:56 | -23.42797 | -46.46948 | 2464 ft | 17 kts | 74° |
| 2026-04-25 18:56 | -23.42762 | -46.46819 | 2467 ft | 17 kts | 73° |
| 2026-04-25 18:56 | -23.42749 | -46.46773 | 2470 ft | 6 kts | 73° |
| 2026-04-25 18:56 | -23.42731 | -46.46708 | 2471 ft | 11 kts | 73° |
| 2026-04-25 18:57 | -23.42704 | -46.46608 | 2471 ft | 16 kts | 73° |
| 2026-04-25 18:57 | -23.42667 | -46.46474 | 2463 ft | 21 kts | 73° |
| 2026-04-25 18:57 | -23.42624 | -46.46309 | 2467 ft | 25 kts | 74° |
| 2026-04-25 18:57 | -23.42607 | -46.46247 | 2467 ft | 26 kts | 73° |
| 2026-04-25 18:58 | -23.42511 | -46.45893 | 2467 ft | 28 kts | 73° |
| 2026-04-25 18:58 | -23.42413 | -46.45530 | 2469 ft | 20 kts | 73° |
| 2026-04-25 18:58 | -23.42372 | -46.45377 | 2469 ft | 20 kts | 73° |
| 2026-04-25 18:59 | -23.42300 | -46.45117 | 2465 ft | 12 kts | 74° |
| 2026-04-25 18:59 | -23.42282 | -46.44976 | 2465 ft | 9 kts | 105° |
| 2026-04-25 19:00 | -23.42298 | -46.44949 | 2466 ft | 0 kts | 137° |
| 2026-04-25 19:00 | -23.42302 | -46.44944 | 2464 ft | 3 kts | 137° |
| 2026-04-25 19:01 | -23.42374 | -46.44909 | 2465 ft | 0 kts | 165° |
| 2026-04-25 19:02 | -23.42375 | -46.44909 | 2465 ft | 1 kts | 165° |
| 2026-04-25 19:02 | -23.42399 | -46.44902 | 2466 ft | 6 kts | 165° |
| 2026-04-25 19:02 | -23.42459 | -46.44884 | 2467 ft | 11 kts | 165° |
| 2026-04-25 19:03 | -23.42500 | -46.44904 | 2469 ft | 5 kts | 251° |
| 2026-04-25 19:03 | -23.42501 | -46.44908 | 2468 ft | 0 kts | 253° |
| 2026-04-25 19:05 | -23.42602 | -46.45295 | 2452 ft | 89 kts | 253° |
| 2026-04-25 19:05 | -23.43171 | -46.47355 | 2670 ft | 174 kts | 256° |
| 2026-04-25 19:05 | -23.43517 | -46.48594 | 3518 ft | 169 kts | 256° |
| 2026-04-25 19:06 | -23.43839 | -46.49795 | 4354 ft | 164 kts | 255° |
| 2026-04-25 19:06 | -23.44501 | -46.52278 | 5639 ft | 189 kts | 256° |
| 2026-04-25 19:06 | -23.44892 | -46.53739 | 6270 ft | 213 kts | 255° |
| 2026-04-25 19:07 | -23.45814 | -46.57152 | 7620 ft | 258 kts | 255° |
| 2026-04-25 19:07 | -23.46316 | -46.59012 | 7871 ft | 251 kts | 255° |
| 2026-04-25 19:08 | -23.47256 | -46.62662 | 7972 ft | 248 kts | 255° |
| 2026-04-25 19:08 | -23.47719 | -46.64477 | 7970 ft | 251 kts | 255° |
| 2026-04-25 19:09 | -23.49119 | -46.69940 | 7968 ft | 249 kts | 255° |
| 2026-04-25 19:09 | -23.49428 | -46.71140 | 7973 ft | 248 kts | 255° |
| 2026-04-25 19:09 | -23.50514 | -46.75375 | 7967 ft | 248 kts | 255° |
| 2026-04-25 19:10 | -23.50977 | -46.77179 | 7965 ft | 249 kts | 255° |
| 2026-04-25 19:10 | -23.51444 | -46.79003 | 7968 ft | 250 kts | 255° |
| 2026-04-25 19:10 | -23.51902 | -46.80792 | 8021 ft | 247 kts | 255° |
| 2026-04-25 19:10 | -23.52364 | -46.82598 | 8355 ft | 247 kts | 254° |
| 2026-04-25 19:11 | -23.52828 | -46.84416 | 8932 ft | 253 kts | 254° |
| 2026-04-25 19:11 | -23.53301 | -46.86266 | 9533 ft | 252 kts | 254° |
| 2026-04-25 19:11 | -23.53784 | -46.88155 | 10127 ft | 267 kts | 254° |
| 2026-04-25 19:11 | -23.54285 | -46.90121 | 10677 ft | 271 kts | 254° |
| 2026-04-25 19:12 | -23.54794 | -46.92114 | 11253 ft | 275 kts | 254° |
| 2026-04-25 19:12 | -23.55309 | -46.94131 | 11830 ft | 276 kts | 254° |
| 2026-04-25 19:12 | -23.55824 | -46.96153 | 12410 ft | 279 kts | 254° |
| 2026-04-25 19:12 | -23.56346 | -46.98204 | 13008 ft | 282 kts | 254° |
| 2026-04-25 19:13 | -23.56872 | -47.00274 | 13613 ft | 285 kts | 254° |
| 2026-04-25 19:13 | -23.57407 | -47.02375 | 14269 ft | 289 kts | 254° |
| 2026-04-25 19:13 | -23.57944 | -47.04478 | 15242 ft | 288 kts | 255° |
| 2026-04-25 19:13 | -23.58482 | -47.06590 | 16127 ft | 291 kts | 255° |
| 2026-04-25 19:14 | -23.59025 | -47.08717 | 17028 ft | 292 kts | 255° |
| 2026-04-25 19:14 | -23.59389 | -47.10145 | 17452 ft | 300 kts | 255° |
| 2026-04-25 19:14 | -23.60745 | -47.12875 | 18317 ft | 316 kts | 230° |
| 2026-04-25 19:14 | -23.62511 | -47.14344 | 19008 ft | 327 kts | 210° |
| 2026-04-25 19:15 | -23.64729 | -47.15027 | 19689 ft | 340 kts | 189° |
| 2026-04-25 19:15 | -23.67124 | -47.14861 | 20350 ft | 350 kts | 177° |
| 2026-04-25 19:15 | -23.69547 | -47.14491 | 21012 ft | 353 kts | 176° |
| 2026-04-25 19:15 | -23.71991 | -47.14102 | 21688 ft | 356 kts | 176° |
| 2026-04-25 19:16 | -23.74459 | -47.13716 | 22339 ft | 360 kts | 177° |
| 2026-04-25 19:16 | -23.76947 | -47.13338 | 22938 ft | 364 kts | 177° |
| 2026-04-25 19:16 | -23.79466 | -47.12961 | 23608 ft | 366 kts | 178° |
| 2026-04-25 19:16 | -23.81999 | -47.12585 | 24137 ft | 369 kts | 178° |
| 2026-04-25 19:17 | -23.84554 | -47.12207 | 24680 ft | 371 kts | 178° |
| 2026-04-25 19:17 | -23.87118 | -47.11828 | 25216 ft | 374 kts | 178° |
| 2026-04-25 19:17 | -23.89709 | -47.11446 | 25746 ft | 377 kts | 178° |
| 2026-04-25 19:17 | -23.92314 | -47.11061 | 26266 ft | 379 kts | 178° |
| 2026-04-25 19:18 | -23.94936 | -47.10673 | 26767 ft | 382 kts | 179° |
| 2026-04-25 19:18 | -23.97580 | -47.10282 | 27275 ft | 384 kts | 179° |
| 2026-04-25 19:18 | -24.00237 | -47.09890 | 27717 ft | 388 kts | 179° |
| 2026-04-25 19:18 | -24.02921 | -47.09493 | 27886 ft | 389 kts | 179° |
| 2026-04-25 19:19 | -24.05607 | -47.09095 | 27937 ft | 389 kts | 179° |
| 2026-04-25 19:19 | -24.08289 | -47.08698 | 27933 ft | 389 kts | 179° |
| 2026-04-25 19:19 | -24.10985 | -47.08301 | 27932 ft | 398 kts | 179° |
| 2026-04-25 19:19 | -24.12825 | -47.08034 | 27932 ft | 409 kts | 179° |
| 2026-04-25 19:20 | -24.16695 | -47.07470 | 27924 ft | 430 kts | 179° |
| 2026-04-25 19:20 | -24.19706 | -47.07026 | 27929 ft | 443 kts | 178° |
| 2026-04-25 19:20 | -24.22786 | -47.06570 | 27925 ft | 448 kts | 179° |
| 2026-04-25 19:20 | -24.25875 | -47.06123 | 27921 ft | 447 kts | 179° |
| 2026-04-25 19:21 | -24.28916 | -47.05682 | 27915 ft | 447 kts | 179° |
| 2026-04-25 19:21 | -24.35125 | -47.04766 | 27911 ft | 447 kts | 179° |
| 2026-04-25 19:21 | -24.38167 | -47.04312 | 27912 ft | 448 kts | 178° |
| 2026-04-25 19:22 | -24.41251 | -47.03850 | 27907 ft | 447 kts | 179° |
| 2026-04-25 19:22 | -24.44333 | -47.03388 | 27910 ft | 448 kts | 178° |
| 2026-04-25 19:22 | -24.50509 | -47.02462 | 27909 ft | 448 kts | 178° |
| 2026-04-25 19:23 | -24.53594 | -47.02000 | 27908 ft | 448 kts | 178° |
| 2026-04-25 19:23 | -24.59732 | -47.01782 | 27908 ft | 435 kts | 195° |
| 2026-04-25 19:23 | -24.62622 | -47.02640 | 27907 ft | 426 kts | 207° |
| 2026-04-25 19:24 | -24.65240 | -47.04092 | 27902 ft | 419 kts | 217° |
| 2026-04-25 19:24 | -24.67684 | -47.05832 | 27905 ft | 419 kts | 218° |
| 2026-04-25 19:24 | -24.72585 | -47.09309 | 27902 ft | 419 kts | 218° |
| 2026-04-25 19:25 | -24.77491 | -47.12786 | 27900 ft | 419 kts | 218° |
| 2026-04-25 19:25 | -24.79942 | -47.14524 | 27900 ft | 419 kts | 218° |
| 2026-04-25 19:25 | -24.82392 | -47.16264 | 27900 ft | 419 kts | 218° |
| 2026-04-25 19:26 | -24.84842 | -47.18004 | 27900 ft | 419 kts | 218° |
| 2026-04-25 19:26 | -24.87292 | -47.19745 | 27901 ft | 419 kts | 218° |
| 2026-04-25 19:26 | -24.89742 | -47.21487 | 27901 ft | 419 kts | 218° |
| 2026-04-25 19:26 | -24.92191 | -47.23230 | 27903 ft | 419 kts | 218° |
| 2026-04-25 19:27 | -24.94637 | -47.24970 | 27900 ft | 419 kts | 218° |
| 2026-04-25 19:27 | -24.96259 | -47.26126 | 27900 ft | 419 kts | 218° |
| 2026-04-25 19:27 | -24.99535 | -47.28460 | 27900 ft | 419 kts | 218° |
| 2026-04-25 19:27 | -25.01982 | -47.30204 | 27899 ft | 419 kts | 218° |
| 2026-04-25 19:28 | -25.04428 | -47.31949 | 27899 ft | 418 kts | 218° |
| 2026-04-25 19:28 | -25.06870 | -47.33692 | 27898 ft | 418 kts | 218° |
| 2026-04-25 19:28 | -25.09313 | -47.35436 | 27898 ft | 418 kts | 218° |
| 2026-04-25 19:28 | -25.11757 | -47.37182 | 27899 ft | 418 kts | 218° |
| 2026-04-25 19:29 | -25.14196 | -47.38926 | 27898 ft | 418 kts | 218° |
| 2026-04-25 19:29 | -25.16637 | -47.40672 | 27898 ft | 418 kts | 218° |
| 2026-04-25 19:29 | -25.19078 | -47.42419 | 27900 ft | 418 kts | 218° |
| 2026-04-25 19:29 | -25.21483 | -47.44140 | 27898 ft | 418 kts | 218° |
| 2026-04-25 19:30 | -25.23954 | -47.45910 | 27896 ft | 418 kts | 218° |
| 2026-04-25 19:30 | -25.26359 | -47.47634 | 27899 ft | 418 kts | 218° |
| 2026-04-25 19:30 | -25.28795 | -47.49381 | 27899 ft | 418 kts | 218° |
| 2026-04-25 19:30 | -25.31233 | -47.51131 | 27897 ft | 418 kts | 219° |
| 2026-04-25 19:31 | -25.33667 | -47.52879 | 27893 ft | 417 kts | 219° |
| 2026-04-25 19:31 | -25.36099 | -47.54626 | 27895 ft | 417 kts | 219° |
| 2026-04-25 19:31 | -25.38532 | -47.56374 | 27896 ft | 417 kts | 219° |
| 2026-04-25 19:31 | -25.40965 | -47.58124 | 27895 ft | 417 kts | 219° |
| 2026-04-25 19:32 | -25.43393 | -47.59872 | 27899 ft | 417 kts | 219° |
| 2026-04-25 19:32 | -25.45821 | -47.61619 | 27898 ft | 416 kts | 219° |
| 2026-04-25 19:32 | -25.48247 | -47.63367 | 27898 ft | 416 kts | 219° |
| 2026-04-25 19:32 | -25.49066 | -47.63958 | 27896 ft | 416 kts | 219° |
| 2026-04-25 19:33 | -25.53094 | -47.66862 | 27897 ft | 415 kts | 219° |
| 2026-04-25 19:33 | -25.55518 | -47.68610 | 27895 ft | 415 kts | 219° |
| 2026-04-25 19:33 | -25.57939 | -47.70358 | 27896 ft | 415 kts | 219° |
| 2026-04-25 19:33 | -25.60357 | -47.72104 | 27896 ft | 415 kts | 219° |
| 2026-04-25 19:34 | -25.62775 | -47.73851 | 27896 ft | 415 kts | 219° |
| 2026-04-25 19:34 | -25.65190 | -47.75597 | 27898 ft | 415 kts | 219° |
| 2026-04-25 19:34 | -25.67606 | -47.77344 | 27900 ft | 414 kts | 219° |
| 2026-04-25 19:34 | -25.70020 | -47.79091 | 27900 ft | 414 kts | 219° |
| 2026-04-25 19:35 | -25.72431 | -47.80836 | 27900 ft | 414 kts | 219° |
| 2026-04-25 19:35 | -25.74842 | -47.82583 | 27895 ft | 414 kts | 219° |
| 2026-04-25 19:35 | -25.77248 | -47.84326 | 27896 ft | 413 kts | 219° |
| 2026-04-25 19:35 | -25.79656 | -47.86072 | 27894 ft | 413 kts | 220° |
| 2026-04-25 19:36 | -25.82061 | -47.87817 | 27891 ft | 413 kts | 220° |
| 2026-04-25 19:36 | -25.84465 | -47.89562 | 27894 ft | 413 kts | 220° |
| 2026-04-25 19:36 | -25.86864 | -47.91303 | 27899 ft | 412 kts | 220° |
| 2026-04-25 19:36 | -25.89265 | -47.93048 | 27899 ft | 412 kts | 220° |
| 2026-04-25 19:37 | -25.91666 | -47.94794 | 27896 ft | 412 kts | 220° |
| 2026-04-25 19:37 | -25.94063 | -47.96537 | 27897 ft | 412 kts | 220° |
| 2026-04-25 19:37 | -25.96463 | -47.98283 | 27893 ft | 412 kts | 220° |
| 2026-04-25 19:37 | -25.98859 | -48.00027 | 27894 ft | 412 kts | 220° |
| 2026-04-25 19:38 | -26.01258 | -48.01775 | 27893 ft | 411 kts | 220° |
| 2026-04-25 19:38 | -26.03519 | -48.03619 | 27900 ft | 407 kts | 226° |
| 2026-04-25 19:38 | -26.05607 | -48.05713 | 27899 ft | 403 kts | 230° |
| 2026-04-25 19:38 | -26.07621 | -48.07873 | 27836 ft | 401 kts | 230° |
| 2026-04-25 19:39 | -26.09639 | -48.10019 | 27584 ft | 401 kts | 230° |
| 2026-04-25 19:39 | -26.11644 | -48.12145 | 27451 ft | 394 kts | 230° |
| 2026-04-25 19:39 | -26.13595 | -48.14211 | 27340 ft | 380 kts | 230° |
| 2026-04-25 19:39 | -26.15456 | -48.16179 | 27166 ft | 358 kts | 230° |
| 2026-04-25 19:40 | -26.17229 | -48.18005 | 26985 ft | 338 kts | 227° |
| 2026-04-25 19:40 | -26.19039 | -48.19586 | 26657 ft | 327 kts | 224° |
| 2026-04-25 19:40 | -26.20941 | -48.20985 | 26057 ft | 328 kts | 220° |
| 2026-04-25 19:40 | -26.22868 | -48.22322 | 25716 ft | 322 kts | 220° |
| 2026-04-25 19:41 | -26.24729 | -48.23618 | 25618 ft | 309 kts | 221° |
| 2026-04-25 19:41 | -26.26513 | -48.24860 | 25501 ft | 297 kts | 221° |
| 2026-04-25 19:41 | -26.28250 | -48.26077 | 25173 ft | 293 kts | 221° |
| 2026-04-25 19:41 | -26.28831 | -48.26485 | 25041 ft | 293 kts | 221° |
| 2026-04-25 19:42 | -26.31685 | -48.28493 | 24419 ft | 290 kts | 221° |
| 2026-04-25 19:42 | -26.33389 | -48.29687 | 24057 ft | 289 kts | 221° |
| 2026-04-25 19:42 | -26.35086 | -48.30876 | 23714 ft | 287 kts | 221° |
| 2026-04-25 19:42 | -26.36773 | -48.32057 | 23349 ft | 285 kts | 221° |
| 2026-04-25 19:43 | -26.38448 | -48.33231 | 22941 ft | 284 kts | 221° |
| 2026-04-25 19:43 | -26.40113 | -48.34398 | 22503 ft | 283 kts | 220° |
| 2026-04-25 19:43 | -26.41774 | -48.35564 | 22088 ft | 281 kts | 220° |
| 2026-04-25 19:43 | -26.43427 | -48.36724 | 21676 ft | 280 kts | 220° |
| 2026-04-25 19:44 | -26.45073 | -48.37879 | 21291 ft | 279 kts | 220° |
| 2026-04-25 19:44 | -26.46714 | -48.39031 | 20888 ft | 278 kts | 220° |
| 2026-04-25 19:44 | -26.48350 | -48.40180 | 20494 ft | 278 kts | 219° |
| 2026-04-25 19:44 | -26.49982 | -48.41326 | 20113 ft | 277 kts | 219° |
| 2026-04-25 19:45 | -26.51610 | -48.42470 | 19733 ft | 276 kts | 219° |
| 2026-04-25 19:45 | -26.53230 | -48.43609 | 19348 ft | 276 kts | 219° |
| 2026-04-25 19:45 | -26.54855 | -48.44751 | 18973 ft | 275 kts | 218° |
| 2026-04-25 19:45 | -26.56475 | -48.45890 | 18605 ft | 275 kts | 218° |
| 2026-04-25 19:46 | -26.58090 | -48.47026 | 18253 ft | 274 kts | 218° |
| 2026-04-25 19:46 | -26.59701 | -48.48158 | 17856 ft | 273 kts | 218° |
| 2026-04-25 19:46 | -26.61304 | -48.49284 | 17482 ft | 271 kts | 218° |
| 2026-04-25 19:46 | -26.62897 | -48.50403 | 17085 ft | 270 kts | 218° |
| 2026-04-25 19:47 | -26.64481 | -48.51517 | 16719 ft | 268 kts | 218° |
| 2026-04-25 19:47 | -26.66057 | -48.52626 | 16353 ft | 267 kts | 218° |
| 2026-04-25 19:47 | -26.67096 | -48.53357 | 16111 ft | 266 kts | 218° |
| 2026-04-25 19:47 | -26.69142 | -48.54883 | 15615 ft | 261 kts | 225° |
| 2026-04-25 19:48 | -26.70019 | -48.55793 | 15382 ft | 258 kts | 231° |
| 2026-04-25 19:48 | -26.71423 | -48.57891 | 14912 ft | 253 kts | 240° |
| 2026-04-25 19:48 | -26.72391 | -48.59496 | 14677 ft | 243 kts | 239° |
| 2026-04-25 19:48 | -26.73029 | -48.60539 | 14487 ft | 238 kts | 239° |
| 2026-04-25 19:49 | -26.73941 | -48.62025 | 14326 ft | 226 kts | 239° |
| 2026-04-25 19:49 | -26.74527 | -48.62981 | 14110 ft | 224 kts | 240° |
| 2026-04-25 19:49 | -26.75703 | -48.64906 | 13609 ft | 223 kts | 240° |
| 2026-04-25 19:49 | -26.76576 | -48.66337 | 13189 ft | 222 kts | 240° |
| 2026-04-25 19:50 | -26.78301 | -48.69165 | 12414 ft | 220 kts | 240° |
| 2026-04-25 19:50 | -26.79161 | -48.70576 | 12029 ft | 219 kts | 240° |
| 2026-04-25 19:50 | -26.80019 | -48.71985 | 11666 ft | 218 kts | 239° |
| 2026-04-25 19:51 | -26.80859 | -48.73360 | 11526 ft | 206 kts | 239° |
| 2026-04-25 19:51 | -26.81625 | -48.74605 | 11417 ft | 185 kts | 240° |
| 2026-04-25 19:51 | -26.82339 | -48.75772 | 11108 ft | 180 kts | 240° |
| 2026-04-25 19:51 | -26.83041 | -48.76930 | 10704 ft | 180 kts | 240° |
| 2026-04-25 19:52 | -26.83745 | -48.78094 | 10299 ft | 180 kts | 240° |
| 2026-04-25 19:52 | -26.84446 | -48.79249 | 9951 ft | 179 kts | 240° |
| 2026-04-25 19:52 | -26.85146 | -48.80401 | 9561 ft | 179 kts | 239° |
| 2026-04-25 19:52 | -26.85844 | -48.81548 | 9181 ft | 178 kts | 239° |
| 2026-04-25 19:53 | -26.86538 | -48.82689 | 8799 ft | 176 kts | 239° |
| 2026-04-25 19:53 | -26.87226 | -48.83822 | 8437 ft | 175 kts | 239° |
| 2026-04-25 19:53 | -26.87909 | -48.84948 | 8097 ft | 174 kts | 239° |
| 2026-04-25 19:53 | -26.88614 | -48.86045 | 7742 ft | 175 kts | 230° |
| 2026-04-25 19:54 | -26.89702 | -48.86689 | 7356 ft | 186 kts | 195° |
| 2026-04-25 19:54 | -26.91023 | -48.86457 | 6818 ft | 205 kts | 160° |
| 2026-04-25 19:54 | -26.92277 | -48.85592 | 6127 ft | 217 kts | 151° |
| 2026-04-25 19:54 | -26.93101 | -48.84936 | 5637 ft | 221 kts | 149° |
| 2026-04-25 19:55 | -26.94781 | -48.83568 | 4748 ft | 223 kts | 149° |
| 2026-04-25 19:55 | -26.96037 | -48.82557 | 4126 ft | 222 kts | 145° |
| 2026-04-25 19:55 | -26.96945 | -48.81159 | 3506 ft | 226 kts | 111° |
| 2026-04-25 19:55 | -26.97042 | -48.79425 | 2934 ft | 224 kts | 76° |
| 2026-04-25 19:56 | -26.96366 | -48.77905 | 2439 ft | 215 kts | 53° |
| 2026-04-25 19:56 | -26.95415 | -48.76647 | 2000 ft | 207 kts | 47° |
| 2026-04-25 19:56 | -26.94487 | -48.75483 | 1769 ft | 193 kts | 50° |
| 2026-04-25 19:56 | -26.93677 | -48.74383 | 1694 ft | 173 kts | 52° |
| 2026-04-25 19:57 | -26.92987 | -48.73362 | 1650 ft | 158 kts | 55° |
| 2026-04-25 19:57 | -26.92372 | -48.72399 | 1442 ft | 148 kts | 57° |
| 2026-04-25 19:57 | -26.91793 | -48.71453 | 1152 ft | 148 kts | 57° |
| 2026-04-25 19:57 | -26.91212 | -48.70498 | 998 ft | 147 kts | 58° |
| 2026-04-25 19:58 | -26.90632 | -48.69542 | 961 ft | 149 kts | 58° |
| 2026-04-25 19:58 | -26.90047 | -48.68578 | 804 ft | 151 kts | 59° |
| 2026-04-25 19:58 | -26.89463 | -48.67606 | 657 ft | 147 kts | 58° |
| 2026-04-25 19:58 | -26.88902 | -48.66675 | 337 ft | 148 kts | 60° |
| 2026-04-25 19:59 | -26.88319 | -48.65716 | 56 ft | 141 kts | 58° |
| 2026-04-25 19:59 | -26.87834 | -48.64915 | 30 ft | 98 kts | 56° |
| 2026-04-25 19:59 | -26.87606 | -48.64548 | 31 ft | 31 kts | 56° |
| 2026-04-25 19:59 | -26.87545 | -48.64443 | 31 ft | 7 kts | 66° |
| 2026-04-25 20:00 | -26.87530 | -48.64411 | 34 ft | 1 kts | 5° |
| 2026-04-25 20:00 | -26.87524 | -48.64421 | 42 ft | 4 kts | 302° |
| 2026-04-25 20:00 | -26.87575 | -48.64493 | 31 ft | 14 kts | 236° |
| 2026-04-25 20:00 | -26.87642 | -48.64602 | 31 ft | 19 kts | 235° |
| 2026-04-25 20:01 | -26.87785 | -48.64838 | 30 ft | 7 kts | 236° |
| 2026-04-25 20:01 | -26.87826 | -48.64899 | 30 ft | 7 kts | 215° |
| 2026-04-25 20:01 | -26.87846 | -48.64887 | 22 ft | 5 kts | 141° |
| 2026-04-25 20:02 | -26.87887 | -48.64856 | 29 ft | 9 kts | 149° |
| 2026-04-25 20:02 | -26.87894 | -48.64852 | 28 ft | 1 kts | 150° |
| 2026-04-25 20:02 | -26.87914 | -48.64860 | 28 ft | 5 kts | 218° |
| 2026-04-25 20:02 | -26.87929 | -48.64871 | 28 ft | 2 kts | 187° |
| 2026-04-25 20:03 | -26.87937 | -48.64863 | 28 ft | 3 kts | 140° |
| 2026-04-25 20:03 | -26.87960 | -48.64846 | 28 ft | 1 kts | 147° |
| 2026-04-25 20:03 | -26.87961 | -48.64845 | 28 ft | 0 kts | 147° |